createdAt,value
2017-10-13T00:00:32.119Z,68.70
2017-10-13T00:02:59.666Z,68.60
2017-10-13T00:05:27.155Z,68.70
2017-10-13T00:07:54.654Z,68.80
2017-10-13T00:10:22.905Z,68.80
2017-10-13T00:12:50.398Z,68.70
2017-10-13T00:15:18.652Z,68.60
2017-10-13T00:17:46.949Z,69.20
2017-10-13T00:20:15.206Z,68.50
2017-10-13T00:22:43.463Z,68.90
2017-10-13T00:25:10.967Z,68.70
2017-10-13T00:27:38.481Z,68.60
2017-10-13T00:30:05.967Z,68.40
2017-10-13T00:32:34.230Z,68.50
2017-10-13T00:35:02.494Z,68.60
2017-10-13T00:37:30.144Z,68.50
2017-10-13T00:39:57.640Z,68.70
2017-10-13T00:42:25.905Z,69.00
2017-10-13T00:44:54.172Z,69.30
2017-10-13T00:47:21.750Z,69.20
2017-10-13T00:49:50.001Z,69.20
2017-10-13T00:52:17.483Z,69.10
2017-10-13T00:54:45.042Z,69.30
2017-10-13T00:57:12.601Z,69.00
2017-10-13T00:59:40.158Z,68.80
2017-10-13T01:02:07.651Z,68.90
2017-10-13T01:04:35.203Z,69.00
2017-10-13T01:07:02.696Z,68.90
2017-10-13T01:09:30.216Z,69.00
2017-10-13T01:11:58.462Z,69.20
2017-10-13T01:14:26.739Z,69.20
2017-10-13T01:16:55.022Z,69.60
2017-10-13T01:19:22.514Z,69.60
2017-10-13T01:21:50.011Z,69.90
2017-10-13T01:24:18.274Z,70.00
2017-10-13T01:26:45.876Z,70.00
2017-10-13T01:29:13.551Z,70.20
2017-10-13T01:31:41.094Z,69.70
2017-10-13T01:34:08.642Z,69.90
2017-10-13T01:36:36.945Z,70.10
2017-10-13T01:39:04.500Z,70.10
2017-10-13T01:41:32.035Z,70.00
2017-10-13T01:44:00.291Z,70.00
2017-10-13T01:46:27.870Z,70.00
2017-10-13T01:48:56.158Z,70.30
2017-10-13T01:51:23.678Z,70.30
2017-10-13T01:53:51.182Z,70.50
2017-10-13T01:56:18.675Z,70.30
2017-10-13T01:58:46.998Z,70.10
2017-10-13T02:01:14.560Z,70.10
2017-10-13T02:03:42.057Z,70.00
2017-10-13T02:06:09.549Z,71.10
2017-10-13T02:08:37.051Z,70.50
2017-10-13T02:11:04.555Z,70.60
2017-10-13T02:13:32.152Z,70.90
2017-10-13T02:15:59.642Z,71.00
2017-10-13T02:18:27.132Z,71.20
2017-10-13T02:20:54.627Z,71.60
2017-10-13T02:23:22.169Z,71.60
2017-10-13T02:25:50.448Z,71.70
2017-10-13T02:28:18.709Z,71.30
2017-10-13T02:30:46.998Z,71.50
2017-10-13T02:33:14.527Z,71.50
2017-10-13T02:35:42.041Z,71.70
2017-10-13T02:38:09.607Z,71.50
2017-10-13T02:40:37.109Z,71.50
2017-10-13T02:43:04.684Z,71.70
2017-10-13T02:45:32.975Z,71.40
2017-10-13T02:48:00.479Z,71.40
2017-10-13T02:50:28.079Z,71.40
2017-10-13T02:52:56.358Z,71.60
2017-10-13T02:55:23.929Z,71.50
2017-10-13T02:57:51.480Z,71.80
2017-10-13T03:00:18.990Z,71.80
2017-10-13T03:02:46.599Z,71.70
2017-10-13T03:05:14.115Z,71.60
2017-10-13T03:07:42.407Z,72.00
2017-10-13T03:10:09.889Z,71.90
2017-10-13T03:12:37.449Z,72.00
2017-10-13T03:15:05.008Z,72.20
2017-10-13T03:17:32.524Z,72.20
2017-10-13T03:20:00.049Z,72.30
2017-10-13T03:22:27.548Z,72.50
2017-10-13T03:24:55.047Z,72.70
2017-10-13T03:27:22.546Z,72.90
2017-10-13T03:29:50.046Z,73.10
2017-10-13T03:32:18.403Z,73.10
2017-10-13T03:34:45.982Z,73.00
2017-10-13T03:37:14.272Z,73.30
2017-10-13T03:39:41.774Z,73.10
2017-10-13T03:42:09.278Z,73.40
2017-10-13T03:44:36.842Z,73.60
2017-10-13T03:47:04.399Z,73.90
2017-10-13T03:49:31.956Z,74.10
2017-10-13T03:52:00.222Z,74.10
2017-10-13T03:54:28.508Z,74.00
2017-10-13T03:56:56.006Z,73.90
2017-10-13T03:59:23.512Z,74.30
2017-10-13T04:01:51.776Z,74.40
2017-10-13T04:04:19.269Z,74.30
2017-10-13T04:06:46.803Z,74.50
2017-10-13T04:09:15.166Z,74.50
2017-10-13T04:11:42.670Z,74.50
2017-10-13T04:14:10.178Z,74.70
2017-10-13T04:16:38.440Z,75.70
2017-10-13T04:19:05.935Z,74.80
2017-10-13T04:21:34.214Z,75.00
2017-10-13T04:24:01.778Z,74.90
2017-10-13T04:26:29.266Z,75.10
2017-10-13T04:28:56.768Z,75.20
2017-10-13T04:31:25.030Z,75.20
2017-10-13T04:33:52.533Z,75.10
2017-10-13T04:36:20.035Z,75.00
2017-10-13T04:38:47.539Z,75.00
2017-10-13T04:41:15.129Z,75.00
2017-10-13T04:43:42.627Z,75.20
2017-10-13T04:46:10.133Z,75.40
2017-10-13T04:48:37.697Z,75.50
2017-10-13T04:51:05.202Z,75.40
2017-10-13T04:53:32.691Z,75.60
2017-10-13T04:56:00.191Z,75.60
2017-10-13T04:58:27.687Z,75.80
2017-10-13T05:00:55.959Z,76.00
2017-10-13T05:03:24.222Z,76.30
2017-10-13T05:05:51.720Z,76.10
2017-10-13T05:08:19.184Z,76.10
2017-10-13T05:10:46.681Z,76.30
2017-10-13T05:13:14.947Z,76.40
2017-10-13T05:15:42.436Z,76.40
2017-10-13T05:18:10.682Z,76.40
2017-10-13T05:20:38.145Z,76.20
2017-10-13T05:23:05.614Z,77.20
2017-10-13T05:25:33.672Z,76.50
2017-10-13T05:28:01.136Z,76.80
2017-10-13T05:30:28.605Z,77.00
2017-10-13T05:32:56.081Z,77.30
2017-10-13T05:35:24.363Z,77.40
2017-10-13T05:37:51.837Z,77.40
2017-10-13T05:40:19.313Z,77.50
2017-10-13T05:42:46.813Z,77.50
2017-10-13T05:45:15.041Z,77.50
2017-10-13T05:47:42.504Z,77.50
2017-10-13T05:50:10.001Z,77.50
2017-10-13T05:52:38.234Z,77.70
2017-10-13T05:55:05.689Z,77.70
2017-10-13T05:57:33.153Z,77.80
2017-10-13T06:00:00.643Z,77.60
2017-10-13T06:02:28.121Z,77.80
2017-10-13T06:04:55.588Z,78.10
2017-10-13T06:07:23.073Z,77.70
2017-10-13T06:09:50.538Z,77.70
2017-10-13T06:12:17.993Z,77.90
2017-10-13T06:14:45.468Z,78.00
2017-10-13T06:17:12.923Z,78.00
2017-10-13T06:19:40.489Z,77.90
2017-10-13T06:22:07.953Z,77.80
2017-10-13T06:24:35.433Z,78.10
2017-10-13T06:27:02.903Z,78.20
2017-10-13T06:29:30.383Z,78.10
2017-10-13T06:31:57.869Z,78.10
2017-10-13T06:34:25.345Z,78.40
2017-10-13T06:36:53.603Z,78.40
2017-10-13T06:39:21.090Z,78.40
2017-10-13T06:41:48.570Z,78.50
2017-10-13T06:44:16.057Z,78.10
2017-10-13T06:46:43.547Z,77.90
2017-10-13T06:49:11.774Z,77.80
2017-10-13T06:51:39.254Z,77.70
2017-10-13T06:54:06.730Z,77.40
2017-10-13T06:56:34.284Z,77.10
2017-10-13T06:59:01.760Z,77.20
2017-10-13T07:01:29.237Z,77.80
2017-10-13T07:03:56.719Z,77.20
2017-10-13T07:06:24.181Z,76.90
2017-10-13T07:08:51.666Z,77.00
2017-10-13T07:11:19.146Z,76.90
2017-10-13T07:13:47.492Z,77.00
2017-10-13T07:16:15.050Z,77.00
2017-10-13T07:18:42.536Z,77.10
2017-10-13T07:21:10.842Z,76.50
2017-10-13T07:23:38.311Z,76.40
2017-10-13T07:26:05.784Z,76.40
2017-10-13T07:28:33.374Z,75.70
2017-10-13T07:31:01.615Z,75.60
2017-10-13T07:33:29.098Z,75.50
2017-10-13T07:35:57.350Z,75.40
2017-10-13T07:38:24.826Z,75.40
2017-10-13T07:40:52.400Z,75.10
2017-10-13T07:43:20.651Z,74.10
2017-10-13T07:45:48.234Z,74.00
2017-10-13T07:48:16.486Z,73.40
2017-10-13T07:50:44.053Z,73.40
2017-10-13T07:53:11.619Z,73.50
2017-10-13T07:55:39.862Z,72.70
2017-10-13T07:58:07.337Z,72.60
2017-10-13T08:00:34.903Z,73.30
2017-10-13T08:03:03.243Z,73.00
2017-10-13T08:05:30.732Z,72.10
2017-10-13T08:07:58.219Z,72.20
2017-10-13T08:10:26.464Z,71.40
2017-10-13T08:12:54.036Z,71.40
2017-10-13T08:15:22.307Z,71.30
2017-10-13T08:17:49.790Z,71.30
2017-10-13T08:20:18.090Z,71.30
2017-10-13T08:22:45.603Z,71.30
2017-10-13T08:25:13.157Z,71.10
2017-10-13T08:27:40.630Z,71.30
2017-10-13T08:30:08.875Z,69.80
2017-10-13T08:32:36.353Z,69.70
2017-10-13T08:35:04.604Z,70.40
2017-10-13T08:37:32.217Z,70.40
2017-10-13T08:39:59.736Z,70.70
2017-10-13T08:42:27.362Z,69.40
2017-10-13T08:44:54.817Z,69.50
2017-10-13T08:47:22.321Z,69.50
2017-10-13T08:49:50.560Z,69.00
2017-10-13T08:52:18.036Z,69.00
2017-10-13T08:54:45.552Z,69.20
2017-10-13T08:57:13.018Z,69.30
2017-10-13T08:59:41.379Z,69.60
2017-10-13T09:02:09.469Z,70.40
2017-10-13T09:04:36.982Z,68.90
2017-10-13T09:07:05.264Z,69.70
2017-10-13T09:09:33.609Z,70.40
2017-10-13T09:12:01.112Z,70.30
2017-10-13T09:14:28.591Z,70.50
2017-10-13T09:16:56.062Z,69.10
2017-10-13T09:19:24.342Z,69.60
2017-10-13T09:21:52.743Z,69.80
2017-10-13T09:24:20.352Z,68.70
2017-10-13T09:26:47.866Z,68.60
2017-10-13T09:29:15.345Z,68.70
2017-10-13T09:31:43.616Z,69.70
2017-10-13T09:34:12.018Z,69.00
2017-10-13T09:36:40.400Z,68.90
2017-10-13T09:39:07.981Z,69.40
2017-10-13T09:41:35.462Z,70.40
2017-10-13T09:44:02.931Z,68.20
2017-10-13T09:46:31.367Z,67.60
2017-10-13T09:48:58.893Z,67.50
2017-10-13T09:51:26.488Z,67.00
2017-10-13T09:53:54.240Z,66.90
2017-10-13T09:56:21.907Z,66.70
2017-10-13T09:58:49.447Z,67.00
2017-10-13T10:01:17.005Z,66.70
2017-10-13T10:03:44.634Z,66.10
2017-10-13T10:06:12.946Z,66.50
2017-10-13T10:08:40.522Z,66.40
2017-10-13T10:11:08.067Z,66.60
2017-10-13T10:13:35.540Z,66.00
2017-10-13T10:16:03.045Z,63.90
2017-10-13T10:18:31.449Z,63.80
2017-10-13T10:20:59.019Z,63.80
2017-10-13T10:23:26.582Z,61.60
2017-10-13T10:25:54.191Z,59.50
2017-10-13T10:28:21.902Z,61.40
2017-10-13T10:30:49.415Z,59.60
2017-10-13T10:33:16.882Z,56.60
2017-10-13T10:35:45.138Z,56.20
2017-10-13T10:38:13.385Z,55.00
2017-10-13T10:40:40.850Z,55.00
2017-10-13T10:43:08.439Z,56.60
2017-10-13T10:45:35.910Z,57.00
2017-10-13T10:48:04.142Z,57.10
2017-10-13T10:50:31.607Z,57.00
2017-10-13T10:52:59.092Z,57.20
2017-10-13T10:55:27.318Z,56.10
2017-10-13T10:57:54.788Z,56.00
2017-10-13T11:00:22.314Z,54.50
2017-10-13T11:02:49.781Z,55.40
2017-10-13T11:05:17.274Z,53.80
2017-10-13T11:07:44.787Z,54.20
2017-10-13T11:10:12.257Z,54.60
2017-10-13T11:12:39.724Z,54.70
2017-10-13T11:15:07.189Z,55.10
2017-10-13T11:17:34.655Z,54.20
2017-10-13T11:20:02.117Z,51.90
2017-10-13T11:22:29.685Z,52.40
2017-10-13T11:24:57.230Z,52.00
2017-10-13T11:27:24.794Z,53.70
2017-10-13T11:29:52.353Z,54.30
2017-10-13T11:32:19.969Z,54.00
2017-10-13T11:34:47.495Z,53.60
2017-10-13T11:37:15.726Z,53.10
2017-10-13T11:39:43.207Z,53.10
2017-10-13T11:42:10.678Z,53.70
2017-10-13T11:44:38.910Z,54.30
2017-10-13T11:47:06.385Z,54.20
2017-10-13T11:49:33.944Z,53.20
2017-10-13T11:52:01.412Z,54.00
2017-10-13T11:54:28.974Z,54.70
2017-10-13T11:56:56.634Z,54.80
2017-10-13T11:59:24.869Z,54.30
2017-10-13T12:01:52.378Z,54.20
2017-10-13T12:04:20.632Z,55.60
2017-10-13T12:06:48.922Z,55.30
2017-10-13T12:09:16.387Z,55.40
2017-10-13T12:11:44.625Z,56.20
2017-10-13T12:14:12.203Z,56.10
2017-10-13T12:16:41.182Z,56.70
2017-10-13T12:19:08.702Z,56.70
2017-10-13T12:21:36.571Z,56.80
2017-10-13T12:24:04.434Z,57.20
2017-10-13T12:26:31.891Z,56.80
2017-10-13T12:28:59.348Z,57.10
2017-10-13T12:31:26.837Z,56.50
2017-10-13T12:33:54.316Z,57.10
2017-10-13T12:36:23.409Z,57.60
2017-10-13T12:38:51.433Z,57.60
2017-10-13T12:41:18.947Z,57.50
2017-10-13T12:43:46.495Z,57.90
2017-10-13T12:46:15.460Z,58.30
2017-10-13T12:48:42.938Z,58.30
2017-10-13T12:51:10.410Z,58.30
2017-10-13T12:53:38.637Z,58.00
2017-10-13T12:56:06.117Z,58.00
2017-10-13T12:58:33.635Z,58.00
2017-10-13T13:01:01.189Z,58.50
2017-10-13T13:03:28.674Z,59.00
2017-10-13T13:05:56.130Z,58.90
2017-10-13T13:08:23.590Z,59.00
2017-10-13T13:10:51.050Z,59.10
2017-10-13T13:13:18.523Z,59.00
2017-10-13T13:15:46.086Z,58.90
2017-10-13T13:18:13.649Z,58.50
2017-10-13T13:20:41.200Z,58.70
2017-10-13T13:23:08.666Z,58.70
2017-10-13T13:25:37.646Z,58.00
2017-10-13T13:28:05.125Z,58.00
2017-10-13T13:30:33.355Z,58.30
2017-10-13T13:33:00.830Z,58.30
2017-10-13T13:35:28.298Z,58.90
2017-10-13T13:37:55.845Z,58.90
2017-10-13T13:40:24.315Z,58.50
2017-10-13T13:42:51.829Z,58.20
2017-10-13T13:45:19.406Z,58.20
2017-10-13T13:47:46.925Z,58.30
2017-10-13T13:50:15.193Z,58.70
2017-10-13T13:52:42.737Z,58.60
2017-10-13T13:55:10.226Z,59.10
2017-10-13T13:57:38.470Z,59.00
2017-10-13T14:00:05.945Z,58.90
2017-10-13T14:02:34.230Z,59.30
2017-10-13T14:05:02.491Z,59.20
2017-10-13T14:07:29.962Z,59.00
2017-10-13T14:09:58.187Z,58.90
2017-10-13T14:12:25.659Z,59.40
2017-10-13T14:14:53.119Z,58.90
2017-10-13T14:17:20.580Z,59.40
2017-10-13T14:19:48.054Z,59.60
2017-10-13T14:22:15.530Z,59.20
2017-10-13T14:24:43.060Z,59.30
2017-10-13T14:27:10.522Z,59.50
2017-10-13T14:29:38.023Z,59.70
2017-10-13T14:32:05.487Z,60.10
2017-10-13T14:34:33.053Z,60.00
2017-10-13T14:37:00.533Z,60.40
2017-10-13T14:39:28.010Z,60.30
2017-10-13T14:41:56.309Z,59.90
2017-10-13T14:44:23.786Z,59.80
2017-10-13T14:46:51.330Z,59.50
2017-10-13T14:49:18.803Z,59.60
2017-10-13T14:51:46.348Z,59.90
2017-10-13T14:54:13.825Z,59.90
2017-10-13T14:56:41.313Z,60.10
2017-10-13T14:59:08.790Z,60.90
2017-10-13T15:01:36.264Z,60.40
2017-10-13T15:04:04.504Z,59.80
2017-10-13T15:06:32.076Z,59.80
2017-10-13T15:08:59.645Z,60.60
2017-10-13T15:11:27.899Z,60.80
2017-10-13T15:13:56.871Z,61.20
2017-10-13T15:16:24.347Z,61.20
2017-10-13T15:18:51.871Z,61.10
2017-10-13T15:21:19.321Z,61.10
2017-10-13T15:23:46.796Z,61.20
2017-10-13T15:26:19.907Z,61.30
2017-10-13T15:28:53.044Z,61.90
2017-10-13T15:31:26.244Z,61.70
2017-10-13T15:36:54.281Z,62.10
2017-10-13T15:39:27.425Z,62.10
2017-10-13T15:42:12.666Z,62.60
2017-10-13T15:44:40.892Z,62.50
2017-10-13T15:47:14.026Z,62.50
2017-10-13T15:52:45.038Z,62.80
2017-10-13T15:55:12.518Z,63.20
2017-10-13T15:57:40.061Z,63.20
2017-10-13T16:00:07.535Z,63.40
2017-10-13T16:02:35.019Z,63.30
2017-10-13T16:05:03.258Z,64.00
2017-10-13T16:07:30.721Z,63.90
2017-10-13T16:09:58.199Z,63.90
2017-10-13T16:12:26.445Z,63.80
2017-10-13T16:14:53.970Z,63.70
2017-10-13T16:17:21.461Z,63.90
2017-10-13T16:19:49.031Z,64.00
2017-10-13T16:22:16.607Z,63.90
2017-10-13T16:24:44.858Z,64.30
2017-10-13T16:27:12.440Z,64.30
2017-10-13T16:29:40.695Z,65.10
2017-10-13T16:32:08.166Z,65.00
2017-10-13T16:34:36.416Z,64.50
2017-10-13T16:37:03.916Z,64.10
2017-10-13T16:39:32.162Z,63.50
2017-10-13T16:41:59.663Z,63.40
2017-10-13T16:44:27.141Z,63.20
2017-10-13T16:46:54.614Z,63.30
2017-10-13T16:49:22.127Z,63.40
2017-10-13T16:51:49.603Z,63.50
2017-10-13T16:54:17.060Z,63.40
2017-10-13T16:56:44.550Z,63.30
2017-10-13T16:59:12.024Z,63.50
2017-10-13T17:01:39.582Z,64.20
2017-10-13T17:04:07.138Z,63.70
2017-10-13T17:06:34.957Z,63.60
2017-10-13T17:09:02.488Z,63.70
2017-10-13T17:11:30.038Z,64.40
2017-10-13T17:13:58.273Z,64.80
2017-10-13T17:16:25.753Z,64.80
2017-10-13T17:18:53.264Z,65.10
2017-10-13T17:21:20.977Z,65.00
2017-10-13T17:23:49.214Z,64.60
2017-10-13T17:26:16.826Z,64.40
2017-10-13T17:28:45.188Z,65.40
2017-10-13T17:31:12.701Z,65.30
2017-10-13T17:33:40.186Z,65.70
2017-10-13T17:36:07.731Z,65.80
2017-10-13T17:38:35.477Z,65.90
2017-10-13T17:41:02.958Z,66.20
2017-10-13T17:43:30.654Z,66.50
2017-10-13T17:45:58.896Z,66.50
2017-10-13T17:48:26.605Z,66.60
2017-10-13T17:50:54.936Z,67.00
2017-10-13T17:53:22.426Z,67.10
2017-10-13T17:55:49.927Z,67.50
2017-10-13T17:58:17.418Z,67.40
2017-10-13T18:00:44.939Z,67.50
2017-10-13T18:03:12.419Z,67.70
2017-10-13T18:05:39.954Z,67.80
2017-10-13T18:08:07.438Z,68.00
2017-10-13T18:10:34.924Z,68.40
2017-10-13T18:13:02.428Z,68.60
2017-10-13T18:15:29.933Z,68.60
2017-10-13T18:17:57.516Z,68.70
2017-10-13T18:20:25.035Z,69.10
2017-10-13T18:22:52.538Z,68.30
2017-10-13T18:25:20.079Z,68.50
2017-10-13T18:27:48.342Z,68.50
2017-10-13T18:30:15.830Z,68.40
2017-10-13T18:32:43.313Z,68.60
2017-10-13T18:35:10.823Z,68.80
2017-10-13T18:37:39.095Z,69.20
2017-10-13T18:40:06.620Z,69.20
2017-10-13T18:42:34.135Z,69.40
2017-10-13T18:45:01.608Z,69.60
2017-10-13T18:47:29.075Z,69.50
2017-10-13T18:49:56.540Z,69.50
2017-10-13T18:52:24.017Z,69.70
2017-10-13T18:54:51.495Z,69.70
2017-10-13T18:57:19.038Z,69.80
2017-10-13T18:59:47.301Z,70.10
2017-10-13T19:02:14.781Z,70.10
2017-10-13T19:04:43.771Z,70.30
2017-10-13T19:07:12.182Z,71.20
2017-10-13T19:09:39.654Z,70.70
2017-10-13T19:12:07.141Z,70.90
2017-10-13T19:14:34.610Z,70.90
2017-10-13T19:17:02.082Z,71.10
2017-10-13T19:19:30.339Z,71.00
2017-10-13T19:21:57.947Z,71.00
2017-10-13T19:24:25.451Z,71.10
2017-10-13T19:26:52.930Z,71.30
2017-10-13T19:29:20.503Z,71.40
2017-10-13T19:31:48.759Z,71.60
2017-10-13T19:34:16.352Z,71.50
2017-10-13T19:36:43.838Z,71.90
2017-10-13T19:39:11.343Z,72.10
2017-10-13T19:41:39.602Z,72.30
2017-10-13T19:44:07.099Z,72.30
2017-10-13T19:46:34.630Z,72.20
2017-10-13T19:49:02.201Z,72.20
2017-10-13T19:51:30.452Z,72.30
2017-10-13T19:53:58.029Z,72.10
2017-10-13T19:56:26.276Z,73.00
2017-10-13T19:58:53.749Z,72.40
2017-10-13T20:01:21.306Z,72.40
2017-10-13T20:03:48.796Z,72.30
2017-10-13T20:06:17.048Z,72.60
2017-10-13T20:08:44.520Z,72.50
2017-10-13T20:11:12.789Z,72.80
2017-10-13T20:13:41.140Z,73.00
2017-10-13T20:16:08.613Z,72.90
2017-10-13T20:18:36.072Z,72.90
2017-10-13T20:21:04.488Z,72.80
2017-10-13T20:23:31.982Z,73.60
2017-10-13T20:25:59.632Z,72.80
2017-10-13T20:28:27.134Z,72.90
2017-10-13T20:30:55.402Z,73.00
2017-10-13T20:33:22.887Z,72.90
2017-10-13T20:35:50.422Z,73.00
2017-10-13T20:38:18.661Z,73.30
2017-10-13T20:40:46.256Z,73.20
2017-10-13T20:43:14.538Z,73.50
2017-10-13T20:45:42.773Z,73.60
2017-10-13T20:48:10.264Z,73.50
2017-10-13T20:50:38.507Z,74.10
2017-10-13T20:53:05.973Z,73.70
2017-10-13T20:55:34.247Z,73.90
2017-10-13T20:58:01.726Z,73.90
2017-10-13T21:00:29.281Z,73.80
2017-10-13T21:02:57.557Z,73.70
2017-10-13T21:05:25.070Z,73.70
2017-10-13T21:07:52.703Z,73.90
2017-10-13T21:10:20.174Z,73.60
2017-10-13T21:12:47.687Z,73.50
2017-10-13T21:15:15.208Z,73.80
2017-10-13T21:17:42.690Z,74.00
2017-10-13T21:20:10.295Z,73.70
2017-10-13T21:22:37.811Z,73.90
2017-10-13T21:25:06.069Z,74.20
2017-10-13T21:27:33.538Z,74.20
2017-10-13T21:30:01.025Z,74.10
2017-10-13T21:32:29.274Z,74.10
2017-10-13T21:34:56.838Z,73.90
2017-10-13T21:37:25.166Z,74.10
2017-10-13T21:39:52.739Z,74.10
2017-10-13T21:42:20.336Z,73.90
2017-10-13T21:44:49.324Z,74.00
2017-10-13T21:47:16.988Z,74.00
2017-10-13T21:49:44.488Z,74.10
2017-10-13T21:52:11.968Z,74.20
2017-10-13T21:54:39.451Z,74.40
2017-10-13T21:57:06.914Z,74.50
2017-10-13T21:59:34.397Z,74.50
2017-10-13T22:02:03.008Z,75.00
2017-10-13T22:04:30.487Z,74.90
2017-10-13T22:06:57.963Z,75.00
2017-10-13T22:09:25.446Z,74.90
2017-10-13T22:11:53.753Z,75.10
2017-10-13T22:14:21.234Z,75.00
2017-10-13T22:16:48.730Z,75.00
2017-10-13T22:19:16.987Z,75.30
2017-10-13T22:21:44.475Z,75.20
2017-10-13T22:24:12.645Z,75.40
2017-10-13T22:26:40.874Z,75.60
2017-10-13T22:29:08.345Z,75.60
2017-10-13T22:31:35.814Z,75.50
2017-10-13T22:34:03.295Z,75.70
2017-10-13T22:36:30.774Z,75.70
2017-10-13T22:38:58.276Z,75.80
2017-10-13T22:41:25.937Z,75.70
2017-10-13T22:43:53.417Z,75.90
2017-10-13T22:46:21.712Z,76.30
2017-10-13T22:48:49.182Z,76.30
2017-10-13T22:51:16.684Z,76.50
2017-10-13T22:53:44.935Z,76.20
2017-10-13T22:56:12.408Z,76.20
2017-10-13T22:58:39.878Z,76.10
2017-10-13T23:01:07.358Z,76.00
2017-10-13T23:03:35.606Z,76.20
2017-10-13T23:06:03.159Z,76.00
2017-10-13T23:08:30.740Z,76.20
2017-10-13T23:10:59.020Z,76.70
2017-10-13T23:13:27.277Z,76.40
2017-10-13T23:15:54.754Z,76.30
2017-10-13T23:18:23.019Z,76.60
2017-10-13T23:20:50.477Z,76.60
2017-10-13T23:23:18.728Z,76.60
2017-10-13T23:25:46.255Z,76.60
2017-10-13T23:28:13.736Z,76.70
2017-10-13T23:30:41.201Z,77.10
2017-10-13T23:33:08.691Z,77.10
2017-10-13T23:35:36.923Z,77.20
2017-10-13T23:38:04.426Z,77.10
2017-10-13T23:40:33.029Z,76.90
2017-10-13T23:43:00.541Z,76.90
2017-10-13T23:45:28.122Z,76.90
2017-10-13T23:47:56.369Z,76.70
2017-10-13T23:50:24.103Z,77.50
2017-10-13T23:52:51.604Z,76.70
2017-10-13T23:55:19.155Z,76.90
2017-10-13T23:57:47.426Z,77.10
